Hauptseite
METAR-TAF:

METAR-TAF

Flughäfen :

RAF Brize Norton

Brize Norton, England

Breite: 51-45N, Länge: 001-35W, Höhe: 88 m

Beobachtung

Neuester Wetterbericht von vor 18 Minuten, um 10:50 UTC
Wind 6 kt aus Ost
Temperatur 20°C
Luftfeuchtigkeit 35%
Luftdruck 1020 hPa
Sichtweite 10 km oder mehr
keine Wolken unter 1500 m und keine Kumulonimbus oder Gewitterwolken

METAR: EGVN 211050Z 10006KT CAVOK 20/04 Q1020 NOSIG

Zeit: 12:08 (11:08 UTC)

Prognose

Neuester Wetterbericht von vor 3 Stunden und 38 Minuten, um 07:30 UTC
Gültige Prognose vom 21 um 09 UTC bis 22 um 09 UTC
Wind 3 kt aus unterschiedlichen Richtungen
Sichtweite 10 km oder mehr
keine Wolken unter 1500 m und keine Kumulonimbus oder Gewitterwolken

TAF: EGVN 210730Z 2109/2209 VRB03KT CAVOK

Wetterbeobachtungen und Prognosen von mehr als 4000 Flughäfen (METAR und TAF Bericht).

Die verfügbaren Stationen werden durch gelbe und rote Markierungen auf der Karte dargestellt.

Führen Sie die Maus auf sie, um den Namen der Station zu sehen.

Darauf klicken, um die Beobachtung von Wetterbeobachtungen und Prognosen zu sehen.

Um die Karte zu ändern : klicken Sie auf den grünen Tasten mit einem schwarzen Kreuz Zum Vergrößern, auf den grünen Button mit einem Gedankenstrich zu verkleinern, oder auf die grünen Pfeile für benachbarte Karten.


METAR-TAF: